Oceanside, Oregon
Current Conditions -  °F | °C
As of 1:15 AM on Sunday 21 Dec 2014 (Local Time) from KTMK Reporting Station
Overcast Overcast  
Wind Chill: 14°   Ceiling: 1500
Heat Index: 14°   Visibility: 7mi
Dew Point: 12°   Wind: 15mph
Humidity: 88%   Direction: 230°SW
Pressure: 29.89"   Gusts: 22mph
Location:  45.46°N, 123.97°W
Report Text: KTMK 210915Z AUTO 23013G19KT 7SM BKN015 BKN025 OVC033 14/12 A2989 RMK AO2
Loading
Personal Weather Stations






























Interactive Weather Map New forecast layout! Learn more

10-Day Weather Forecast

Advertisements
Track Severe Weather on mobile